sensor_id;sensor_type;location;lat;lon;timestamp;P1;durP1;ratioP1;P2;durP2;ratioP2
18302;SDS011;9277;37.980;23.748;2022-09-09T00:02:12;2.45;;;1.90;;
18302;SDS011;9277;37.980;23.748;2022-09-09T00:04:42;3.58;;;1.70;;
18302;SDS011;9277;37.980;23.748;2022-09-09T00:07:13;7.65;;;1.90;;
18302;SDS011;9277;37.980;23.748;2022-09-09T00:09:45;1.75;;;1.65;;
18302;SDS011;9277;37.980;23.748;2022-09-09T00:12:15;1.88;;;1.77;;
18302;SDS011;9277;37.980;23.748;2022-09-09T00:14:47;1.88;;;1.60;;
18302;SDS011;9277;37.980;23.748;2022-09-09T00:17:20;2.95;;;1.90;;
18302;SDS011;9277;37.980;23.748;2022-09-09T00:19:49;1.70;;;1.60;;
18302;SDS011;9277;37.980;23.748;2022-09-09T00:22:20;4.55;;;2.03;;
18302;SDS011;9277;37.980;23.748;2022-09-09T00:24:48;3.42;;;2.17;;
18302;SDS011;9277;37.980;23.748;2022-09-09T00:27:21;2.50;;;2.00;;
18302;SDS011;9277;37.980;23.748;2022-09-09T00:29:52;1.92;;;1.83;;
18302;SDS011;9277;37.980;23.748;2022-09-09T00:32:20;2.08;;;1.88;;
18302;SDS011;9277;37.980;23.748;2022-09-09T00:34:50;2.10;;;1.90;;
18302;SDS011;9277;37.980;23.748;2022-09-09T00:37:19;1.63;;;1.52;;
18302;SDS011;9277;37.980;23.748;2022-09-09T00:39:46;2.85;;;1.80;;
18302;SDS011;9277;37.980;23.748;2022-09-09T00:42:14;1.80;;;1.70;;
18302;SDS011;9277;37.980;23.748;2022-09-09T00:44:46;1.80;;;1.70;;
18302;SDS011;9277;37.980;23.748;2022-09-09T00:47:20;3.08;;;1.70;;
18302;SDS011;9277;37.980;23.748;2022-09-09T00:49:54;2.10;;;1.88;;
18302;SDS011;9277;37.980;23.748;2022-09-09T00:52:30;1.55;;;1.42;;
18302;SDS011;9277;37.980;23.748;2022-09-09T00:55:02;2.53;;;1.67;;
18302;SDS011;9277;37.980;23.748;2022-09-09T00:57:30;2.95;;;1.98;;
18302;SDS011;9277;37.980;23.748;2022-09-09T01:00:15;1.55;;;1.45;;
18302;SDS011;9277;37.980;23.748;2022-09-09T01:02:46;1.60;;;1.50;;
18302;SDS011;9277;37.980;23.748;2022-09-09T01:05:17;1.52;;;1.42;;
18302;SDS011;9277;37.980;23.748;2022-09-09T01:07:47;1.63;;;1.50;;
18302;SDS011;9277;37.980;23.748;2022-09-09T01:10:17;1.60;;;1.50;;
18302;SDS011;9277;37.980;23.748;2022-09-09T01:12:50;1.95;;;1.30;;
18302;SDS011;9277;37.980;23.748;2022-09-09T01:15:19;1.85;;;1.58;;
18302;SDS011;9277;37.980;23.748;2022-09-09T01:17:53;1.70;;;1.60;;
18302;SDS011;9277;37.980;23.748;2022-09-09T01:20:22;2.17;;;1.60;;
18302;SDS011;9277;37.980;23.748;2022-09-09T01:22:59;1.90;;;1.73;;
18302;SDS011;9277;37.980;23.748;2022-09-09T01:25:29;1.73;;;1.63;;
18302;SDS011;9277;37.980;23.748;2022-09-09T01:27:59;1.60;;;1.50;;
18302;SDS011;9277;37.980;23.748;2022-09-09T01:30:27;1.90;;;1.50;;
18302;SDS011;9277;37.980;23.748;2022-09-09T01:32:55;1.58;;;1.45;;
18302;SDS011;9277;37.980;23.748;2022-09-09T01:35:29;1.75;;;1.65;;
18302;SDS011;9277;37.980;23.748;2022-09-09T01:37:56;2.03;;;1.30;;
18302;SDS011;9277;37.980;23.748;2022-09-09T01:40:23;1.38;;;1.27;;
18302;SDS011;9277;37.980;23.748;2022-09-09T01:42:50;1.30;;;1.25;;
18302;SDS011;9277;37.980;23.748;2022-09-09T01:45:19;1.73;;;1.60;;
18302;SDS011;9277;37.980;23.748;2022-09-09T01:47:46;1.60;;;1.50;;
18302;SDS011;9277;37.980;23.748;2022-09-09T01:50:13;1.52;;;1.40;;
18302;SDS011;9277;37.980;23.748;2022-09-09T01:52:41;1.73;;;1.58;;
18302;SDS011;9277;37.980;23.748;2022-09-09T01:55:09;1.85;;;1.52;;
18302;SDS011;9277;37.980;23.748;2022-09-09T01:57:38;1.65;;;1.55;;
18302;SDS011;9277;37.980;23.748;2022-09-09T02:00:07;2.03;;;1.73;;
18302;SDS011;9277;37.980;23.748;2022-09-09T02:02:38;2.28;;;1.65;;
18302;SDS011;9277;37.980;23.748;2022-09-09T02:05:12;1.33;;;1.30;;
18302;SDS011;9277;37.980;23.748;2022-09-09T02:07:41;4.53;;;1.80;;
18302;SDS011;9277;37.980;23.748;2022-09-09T02:10:10;1.70;;;1.60;;
18302;SDS011;9277;37.980;23.748;2022-09-09T02:12:38;1.60;;;1.50;;
18302;SDS011;9277;37.980;23.748;2022-09-09T02:15:08;2.53;;;1.50;;
18302;SDS011;9277;37.980;23.748;2022-09-09T02:17:39;2.10;;;1.58;;
18302;SDS011;9277;37.980;23.748;2022-09-09T02:20:08;2.55;;;1.67;;
18302;SDS011;9277;37.980;23.748;2022-09-09T02:22:35;4.03;;;1.90;;
18302;SDS011;9277;37.980;23.748;2022-09-09T02:25:05;4.60;;;1.50;;
18302;SDS011;9277;37.980;23.748;2022-09-09T02:27:33;2.60;;;1.60;;
18302;SDS011;9277;37.980;23.748;2022-09-09T02:30:00;1.70;;;1.60;;
18302;SDS011;9277;37.980;23.748;2022-09-09T02:32:28;3.55;;;1.60;;
18302;SDS011;9277;37.980;23.748;2022-09-09T02:34:59;1.50;;;1.40;;
18302;SDS011;9277;37.980;23.748;2022-09-09T02:37:29;1.92;;;1.67;;
18302;SDS011;9277;37.980;23.748;2022-09-09T02:39:58;1.63;;;1.52;;
18302;SDS011;9277;37.980;23.748;2022-09-09T02:42:25;1.80;;;1.70;;
18302;SDS011;9277;37.980;23.748;2022-09-09T02:44:52;1.25;;;1.25;;
18302;SDS011;9277;37.980;23.748;2022-09-09T02:47:25;3.92;;;1.85;;
18302;SDS011;9277;37.980;23.748;2022-09-09T02:49:56;1.65;;;1.40;;
18302;SDS011;9277;37.980;23.748;2022-09-09T02:52:29;1.45;;;1.38;;
18302;SDS011;9277;37.980;23.748;2022-09-09T02:55:00;1.35;;;1.25;;
18302;SDS011;9277;37.980;23.748;2022-09-09T02:57:29;1.73;;;1.60;;
18302;SDS011;9277;37.980;23.748;2022-09-09T02:59:57;2.10;;;1.90;;
18302;SDS011;9277;37.980;23.748;2022-09-09T03:02:24;1.70;;;1.60;;
18302;SDS011;9277;37.980;23.748;2022-09-09T03:04:51;1.42;;;1.42;;
18302;SDS011;9277;37.980;23.748;2022-09-09T03:07:18;1.80;;;1.60;;
18302;SDS011;9277;37.980;23.748;2022-09-09T03:09:46;1.58;;;1.48;;
18302;SDS011;9277;37.980;23.748;2022-09-09T03:12:14;1.40;;;1.30;;
18302;SDS011;9277;37.980;23.748;2022-09-09T03:14:41;1.58;;;1.48;;
18302;SDS011;9277;37.980;23.748;2022-09-09T03:17:09;1.52;;;1.42;;
18302;SDS011;9277;37.980;23.748;2022-09-09T03:19:36;1.85;;;1.73;;
18302;SDS011;9277;37.980;23.748;2022-09-09T03:22:02;1.45;;;1.35;;
18302;SDS011;9277;37.980;23.748;2022-09-09T03:24:30;1.30;;;1.20;;
18302;SDS011;9277;37.980;23.748;2022-09-09T03:26:58;2.63;;;1.40;;
18302;SDS011;9277;37.980;23.748;2022-09-09T03:29:25;2.25;;;1.73;;
18302;SDS011;9277;37.980;23.748;2022-09-09T03:31:52;1.48;;;1.40;;
18302;SDS011;9277;37.980;23.748;2022-09-09T03:34:19;1.58;;;1.48;;
18302;SDS011;9277;37.980;23.748;2022-09-09T03:36:45;1.65;;;1.55;;
18302;SDS011;9277;37.980;23.748;2022-09-09T03:39:13;2.35;;;1.85;;
18302;SDS011;9277;37.980;23.748;2022-09-09T03:41:40;1.33;;;1.30;;
18302;SDS011;9277;37.980;23.748;2022-09-09T03:44:08;2.20;;;1.38;;
18302;SDS011;9277;37.980;23.748;2022-09-09T03:46:35;1.40;;;1.40;;
18302;SDS011;9277;37.980;23.748;2022-09-09T03:49:03;1.70;;;1.40;;
18302;SDS011;9277;37.980;23.748;2022-09-09T03:51:30;1.60;;;1.50;;
18302;SDS011;9277;37.980;23.748;2022-09-09T03:53:57;3.95;;;1.80;;
18302;SDS011;9277;37.980;23.748;2022-09-09T03:56:24;1.20;;;1.20;;
18302;SDS011;9277;37.980;23.748;2022-09-09T03:58:50;1.70;;;1.30;;
18302;SDS011;9277;37.980;23.748;2022-09-09T04:01:18;2.13;;;1.60;;
18302;SDS011;9277;37.980;23.748;2022-09-09T04:03:45;3.63;;;1.60;;
18302;SDS011;9277;37.980;23.748;2022-09-09T04:06:12;4.65;;;1.63;;
18302;SDS011;9277;37.980;23.748;2022-09-09T04:08:40;1.73;;;1.60;;
18302;SDS011;9277;37.980;23.748;2022-09-09T04:11:07;2.45;;;2.25;;
18302;SDS011;9277;37.980;23.748;2022-09-09T04:13:34;8.68;;;2.40;;
18302;SDS011;9277;37.980;23.748;2022-09-09T04:16:03;5.80;;;2.20;;
18302;SDS011;9277;37.980;23.748;2022-09-09T04:18:31;4.03;;;1.90;;
18302;SDS011;9277;37.980;23.748;2022-09-09T04:20:58;1.88;;;1.77;;
18302;SDS011;9277;37.980;23.748;2022-09-09T04:23:25;2.63;;;2.20;;
18302;SDS011;9277;37.980;23.748;2022-09-09T04:25:54;2.42;;;1.73;;
18302;SDS011;9277;37.980;23.748;2022-09-09T04:28:22;3.40;;;1.90;;
18302;SDS011;9277;37.980;23.748;2022-09-09T04:30:49;2.00;;;1.90;;
18302;SDS011;9277;37.980;23.748;2022-09-09T04:33:15;3.65;;;2.05;;
18302;SDS011;9277;37.980;23.748;2022-09-09T04:35:45;3.20;;;1.90;;
18302;SDS011;9277;37.980;23.748;2022-09-09T04:38:12;2.22;;;1.90;;
18302;SDS011;9277;37.980;23.748;2022-09-09T04:40:39;1.52;;;1.45;;
18302;SDS011;9277;37.980;23.748;2022-09-09T04:43:08;2.03;;;1.75;;
18302;SDS011;9277;37.980;23.748;2022-09-09T04:45:35;5.30;;;2.28;;
18302;SDS011;9277;37.980;23.748;2022-09-09T04:48:02;5.30;;;2.58;;
18302;SDS011;9277;37.980;23.748;2022-09-09T04:50:29;4.40;;;2.10;;
18302;SDS011;9277;37.980;23.748;2022-09-09T04:52:59;5.95;;;1.83;;
18302;SDS011;9277;37.980;23.748;2022-09-09T04:55:25;5.80;;;2.53;;
18302;SDS011;9277;37.980;23.748;2022-09-09T04:57:52;11.05;;;2.30;;
18302;SDS011;9277;37.980;23.748;2022-09-09T05:00:19;3.92;;;1.80;;
18302;SDS011;9277;37.980;23.748;2022-09-09T05:02:46;3.50;;;2.15;;
18302;SDS011;9277;37.980;23.748;2022-09-09T05:05:13;3.17;;;1.92;;
18302;SDS011;9277;37.980;23.748;2022-09-09T05:07:40;2.10;;;1.90;;
18302;SDS011;9277;37.980;23.748;2022-09-09T05:10:08;5.35;;;2.50;;
18302;SDS011;9277;37.980;23.748;2022-09-09T05:12:35;3.17;;;2.03;;
18302;SDS011;9277;37.980;23.748;2022-09-09T05:15:02;7.70;;;1.95;;
18302;SDS011;9277;37.980;23.748;2022-09-09T05:17:30;8.20;;;2.42;;
18302;SDS011;9277;37.980;23.748;2022-09-09T05:19:56;48.88;;;5.32;;
18302;SDS011;9277;37.980;23.748;2022-09-09T05:22:26;24.60;;;4.00;;
18302;SDS011;9277;37.980;23.748;2022-09-09T05:24:53;19.85;;;2.90;;
18302;SDS011;9277;37.980;23.748;2022-09-09T05:27:26;29.60;;;10.23;;
18302;SDS011;9277;37.980;23.748;2022-09-09T05:29:53;15.55;;;8.40;;
18302;SDS011;9277;37.980;23.748;2022-09-09T05:32:20;11.13;;;4.20;;
18302;SDS011;9277;37.980;23.748;2022-09-09T05:34:47;11.15;;;3.47;;
18302;SDS011;9277;37.980;23.748;2022-09-09T05:37:14;5.68;;;2.38;;
18302;SDS011;9277;37.980;23.748;2022-09-09T05:39:45;3.40;;;2.33;;
18302;SDS011;9277;37.980;23.748;2022-09-09T05:42:12;9.68;;;2.60;;
18302;SDS011;9277;37.980;23.748;2022-09-09T05:44:40;9.40;;;2.85;;
18302;SDS011;9277;37.980;23.748;2022-09-09T05:47:11;3.67;;;2.35;;
18302;SDS011;9277;37.980;23.748;2022-09-09T05:49:38;3.33;;;2.38;;
18302;SDS011;9277;37.980;23.748;2022-09-09T05:52:05;6.10;;;2.10;;
18302;SDS011;9277;37.980;23.748;2022-09-09T05:54:35;4.50;;;2.58;;
18302;SDS011;9277;37.980;23.748;2022-09-09T05:57:03;2.78;;;2.17;;
18302;SDS011;9277;37.980;23.748;2022-09-09T05:59:31;6.88;;;2.08;;
18302;SDS011;9277;37.980;23.748;2022-09-09T06:02:00;13.90;;;2.85;;
18302;SDS011;9277;37.980;23.748;2022-09-09T06:04:27;25.05;;;3.10;;
18302;SDS011;9277;37.980;23.748;2022-09-09T06:06:55;14.73;;;3.15;;
18302;SDS011;9277;37.980;23.748;2022-09-09T06:09:22;3.65;;;2.20;;
18302;SDS011;9277;37.980;23.748;2022-09-09T06:11:50;7.32;;;2.90;;
18302;SDS011;9277;37.980;23.748;2022-09-09T06:14:17;3.28;;;2.15;;
18302;SDS011;9277;37.980;23.748;2022-09-09T06:16:45;5.38;;;2.50;;
18302;SDS011;9277;37.980;23.748;2022-09-09T06:19:16;2.65;;;2.15;;
18302;SDS011;9277;37.980;23.748;2022-09-09T06:21:43;3.15;;;2.85;;
18302;SDS011;9277;37.980;23.748;2022-09-09T06:24:10;9.23;;;2.35;;
18302;SDS011;9277;37.980;23.748;2022-09-09T06:26:39;4.10;;;2.47;;
18302;SDS011;9277;37.980;23.748;2022-09-09T06:29:06;7.88;;;2.38;;
18302;SDS011;9277;37.980;23.748;2022-09-09T06:31:34;5.82;;;2.53;;
18302;SDS011;9277;37.980;23.748;2022-09-09T06:34:03;2.70;;;2.30;;
18302;SDS011;9277;37.980;23.748;2022-09-09T06:36:33;2.83;;;2.17;;
18302;SDS011;9277;37.980;23.748;2022-09-09T06:39:02;5.10;;;2.50;;
18302;SDS011;9277;37.980;23.748;2022-09-09T06:41:29;4.35;;;2.95;;
18302;SDS011;9277;37.980;23.748;2022-09-09T06:43:57;3.78;;;2.58;;
18302;SDS011;9277;37.980;23.748;2022-09-09T06:46:24;7.78;;;2.55;;
18302;SDS011;9277;37.980;23.748;2022-09-09T06:48:54;7.95;;;2.65;;
18302;SDS011;9277;37.980;23.748;2022-09-09T06:51:24;4.18;;;2.95;;
18302;SDS011;9277;37.980;23.748;2022-09-09T06:53:53;6.38;;;3.47;;
18302;SDS011;9277;37.980;23.748;2022-09-09T06:56:21;7.57;;;2.97;;
18302;SDS011;9277;37.980;23.748;2022-09-09T06:58:48;6.25;;;2.72;;
18302;SDS011;9277;37.980;23.748;2022-09-09T07:01:16;8.43;;;3.47;;
18302;SDS011;9277;37.980;23.748;2022-09-09T07:03:45;4.78;;;2.38;;
18302;SDS011;9277;37.980;23.748;2022-09-09T07:06:13;5.53;;;2.40;;
18302;SDS011;9277;37.980;23.748;2022-09-09T07:08:48;6.10;;;3.00;;
18302;SDS011;9277;37.980;23.748;2022-09-09T07:11:19;6.43;;;2.28;;
18302;SDS011;9277;37.980;23.748;2022-09-09T07:13:46;5.55;;;2.70;;
18302;SDS011;9277;37.980;23.748;2022-09-09T07:16:14;4.78;;;2.45;;
18302;SDS011;9277;37.980;23.748;2022-09-09T07:18:41;5.05;;;3.00;;
18302;SDS011;9277;37.980;23.748;2022-09-09T07:21:08;3.67;;;2.80;;
18302;SDS011;9277;37.980;23.748;2022-09-09T07:23:35;3.95;;;2.17;;
18302;SDS011;9277;37.980;23.748;2022-09-09T07:26:02;2.72;;;2.45;;
18302;SDS011;9277;37.980;23.748;2022-09-09T07:28:31;4.68;;;2.65;;
18302;SDS011;9277;37.980;23.748;2022-09-09T07:30:58;3.20;;;2.40;;
18302;SDS011;9277;37.980;23.748;2022-09-09T07:33:30;4.30;;;2.25;;
18302;SDS011;9277;37.980;23.748;2022-09-09T07:36:02;3.15;;;2.28;;
18302;SDS011;9277;37.980;23.748;2022-09-09T07:38:29;8.50;;;2.60;;
18302;SDS011;9277;37.980;23.748;2022-09-09T07:41:03;4.53;;;2.20;;
18302;SDS011;9277;37.980;23.748;2022-09-09T07:43:32;5.60;;;2.53;;
18302;SDS011;9277;37.980;23.748;2022-09-09T07:45:59;4.28;;;2.45;;
18302;SDS011;9277;37.980;23.748;2022-09-09T07:48:27;5.40;;;2.15;;
18302;SDS011;9277;37.980;23.748;2022-09-09T07:51:02;2.85;;;2.35;;
18302;SDS011;9277;37.980;23.748;2022-09-09T07:53:29;3.63;;;2.30;;
18302;SDS011;9277;37.980;23.748;2022-09-09T07:56:01;6.00;;;2.80;;
18302;SDS011;9277;37.980;23.748;2022-09-09T07:58:33;3.17;;;2.53;;
18302;SDS011;9277;37.980;23.748;2022-09-09T08:00:59;9.80;;;3.30;;
18302;SDS011;9277;37.980;23.748;2022-09-09T08:03:26;8.35;;;2.95;;
18302;SDS011;9277;37.980;23.748;2022-09-09T08:05:59;4.32;;;2.47;;
18302;SDS011;9277;37.980;23.748;2022-09-09T08:08:28;5.80;;;2.80;;
18302;SDS011;9277;37.980;23.748;2022-09-09T08:11:01;4.70;;;2.88;;
18302;SDS011;9277;37.980;23.748;2022-09-09T08:13:34;5.90;;;2.45;;
18302;SDS011;9277;37.980;23.748;2022-09-09T08:16:05;7.45;;;2.90;;
18302;SDS011;9277;37.980;23.748;2022-09-09T08:18:32;4.25;;;2.65;;
18302;SDS011;9277;37.980;23.748;2022-09-09T08:21:12;4.63;;;2.60;;
18302;SDS011;9277;37.980;23.748;2022-09-09T08:23:39;4.93;;;2.60;;
18302;SDS011;9277;37.980;23.748;2022-09-09T08:26:07;6.22;;;2.33;;
18302;SDS011;9277;37.980;23.748;2022-09-09T08:28:35;5.45;;;2.80;;
18302;SDS011;9277;37.980;23.748;2022-09-09T08:31:10;3.03;;;2.28;;
18302;SDS011;9277;37.980;23.748;2022-09-09T08:33:37;2.75;;;2.10;;
18302;SDS011;9277;37.980;23.748;2022-09-09T08:36:05;6.40;;;3.08;;
18302;SDS011;9277;37.980;23.748;2022-09-09T08:38:32;4.07;;;2.38;;
18302;SDS011;9277;37.980;23.748;2022-09-09T08:41:03;3.45;;;2.30;;
18302;SDS011;9277;37.980;23.748;2022-09-09T08:43:33;3.33;;;2.80;;
18302;SDS011;9277;37.980;23.748;2022-09-09T08:46:02;4.68;;;2.28;;
18302;SDS011;9277;37.980;23.748;2022-09-09T08:48:39;4.28;;;2.85;;
18302;SDS011;9277;37.980;23.748;2022-09-09T08:51:07;5.32;;;2.50;;
18302;SDS011;9277;37.980;23.748;2022-09-09T08:53:35;6.18;;;2.88;;
18302;SDS011;9277;37.980;23.748;2022-09-09T08:56:08;4.30;;;2.42;;
18302;SDS011;9277;37.980;23.748;2022-09-09T08:58:40;2.55;;;2.25;;
18302;SDS011;9277;37.980;23.748;2022-09-09T09:03:56;4.45;;;2.45;;
18302;SDS011;9277;37.980;23.748;2022-09-09T09:06:26;3.95;;;2.55;;
18302;SDS011;9277;37.980;23.748;2022-09-09T09:09:01;2.72;;;2.53;;
18302;SDS011;9277;37.980;23.748;2022-09-09T09:11:34;6.15;;;3.10;;
18302;SDS011;9277;37.980;23.748;2022-09-09T09:14:01;5.80;;;3.10;;
18302;SDS011;9277;37.980;23.748;2022-09-09T09:16:30;3.45;;;2.80;;
18302;SDS011;9277;37.980;23.748;2022-09-09T09:19:03;8.25;;;2.50;;
18302;SDS011;9277;37.980;23.748;2022-09-09T09:21:33;3.75;;;2.60;;
18302;SDS011;9277;37.980;23.748;2022-09-09T09:24:01;3.83;;;2.88;;
18302;SDS011;9277;37.980;23.748;2022-09-09T09:26:29;3.60;;;2.65;;
18302;SDS011;9277;37.980;23.748;2022-09-09T09:28:57;6.72;;;2.80;;
18302;SDS011;9277;37.980;23.748;2022-09-09T09:31:25;2.55;;;2.35;;
18302;SDS011;9277;37.980;23.748;2022-09-09T09:33:53;4.28;;;2.45;;
18302;SDS011;9277;37.980;23.748;2022-09-09T09:36:22;6.43;;;3.22;;
18302;SDS011;9277;37.980;23.748;2022-09-09T09:38:53;3.40;;;3.05;;
18302;SDS011;9277;37.980;23.748;2022-09-09T09:41:34;5.13;;;2.58;;
18302;SDS011;9277;37.980;23.748;2022-09-09T09:44:02;3.58;;;2.90;;
18302;SDS011;9277;37.980;23.748;2022-09-09T09:46:32;3.65;;;2.80;;
18302;SDS011;9277;37.980;23.748;2022-09-09T09:49:03;2.65;;;2.45;;
18302;SDS011;9277;37.980;23.748;2022-09-09T09:51:35;4.85;;;3.25;;
18302;SDS011;9277;37.980;23.748;2022-09-09T09:54:21;10.45;;;3.05;;
18302;SDS011;9277;37.980;23.748;2022-09-09T09:56:51;4.07;;;2.67;;
18302;SDS011;9277;37.980;23.748;2022-09-09T09:59:21;4.22;;;2.90;;
18302;SDS011;9277;37.980;23.748;2022-09-09T10:01:48;4.07;;;2.60;;
18302;SDS011;9277;37.980;23.748;2022-09-09T10:04:16;3.05;;;2.47;;
18302;SDS011;9277;37.980;23.748;2022-09-09T10:06:45;2.78;;;2.33;;
18302;SDS011;9277;37.980;23.748;2022-09-09T10:09:20;3.40;;;2.92;;
18302;SDS011;9277;37.980;23.748;2022-09-09T10:11:49;4.65;;;2.50;;
18302;SDS011;9277;37.980;23.748;2022-09-09T10:14:24;3.10;;;2.63;;
18302;SDS011;9277;37.980;23.748;2022-09-09T10:16:57;3.08;;;2.78;;
18302;SDS011;9277;37.980;23.748;2022-09-09T10:19:29;7.80;;;4.28;;
18302;SDS011;9277;37.980;23.748;2022-09-09T10:22:01;3.80;;;3.22;;
18302;SDS011;9277;37.980;23.748;2022-09-09T10:27:20;4.07;;;2.78;;
18302;SDS011;9277;37.980;23.748;2022-09-09T10:29:55;6.03;;;3.28;;
18302;SDS011;9277;37.980;23.748;2022-09-09T10:32:38;6.82;;;3.28;;
18302;SDS011;9277;37.980;23.748;2022-09-09T10:35:10;6.00;;;2.88;;
18302;SDS011;9277;37.980;23.748;2022-09-09T10:37:44;4.78;;;3.00;;
18302;SDS011;9277;37.980;23.748;2022-09-09T10:40:23;5.55;;;2.65;;
18302;SDS011;9277;37.980;23.748;2022-09-09T10:43:01;3.05;;;2.47;;
18302;SDS011;9277;37.980;23.748;2022-09-09T10:45:35;3.30;;;2.88;;
18302;SDS011;9277;37.980;23.748;2022-09-09T10:50:53;3.08;;;2.78;;
18302;SDS011;9277;37.980;23.748;2022-09-09T10:53:32;6.07;;;2.75;;
18302;SDS011;9277;37.980;23.748;2022-09-09T10:56:02;4.15;;;2.88;;
18302;SDS011;9277;37.980;23.748;2022-09-09T10:58:31;4.07;;;3.25;;
18302;SDS011;9277;37.980;23.748;2022-09-09T11:01:05;5.50;;;2.92;;
18302;SDS011;9277;37.980;23.748;2022-09-09T11:03:34;4.07;;;2.80;;
18302;SDS011;9277;37.980;23.748;2022-09-09T11:06:09;5.57;;;3.28;;
18302;SDS011;9277;37.980;23.748;2022-09-09T11:08:39;3.88;;;3.03;;
18302;SDS011;9277;37.980;23.748;2022-09-09T11:11:08;3.25;;;2.75;;
18302;SDS011;9277;37.980;23.748;2022-09-09T11:13:38;8.55;;;3.53;;
18302;SDS011;9277;37.980;23.748;2022-09-09T11:16:12;6.60;;;4.13;;
18302;SDS011;9277;37.980;23.748;2022-09-09T11:18:41;7.72;;;4.15;;
18302;SDS011;9277;37.980;23.748;2022-09-09T11:21:12;4.68;;;3.47;;
18302;SDS011;9277;37.980;23.748;2022-09-09T11:23:42;4.35;;;3.13;;
18302;SDS011;9277;37.980;23.748;2022-09-09T11:26:12;9.32;;;3.65;;
18302;SDS011;9277;37.980;23.748;2022-09-09T11:28:46;4.10;;;3.13;;
18302;SDS011;9277;37.980;23.748;2022-09-09T11:34:13;3.67;;;3.10;;
18302;SDS011;9277;37.980;23.748;2022-09-09T11:36:48;5.57;;;3.10;;
18302;SDS011;9277;37.980;23.748;2022-09-09T11:42:07;5.55;;;4.10;;
18302;SDS011;9277;37.980;23.748;2022-09-09T11:44:34;4.93;;;3.38;;
18302;SDS011;9277;37.980;23.748;2022-09-09T11:47:02;5.57;;;3.97;;
18302;SDS011;9277;37.980;23.748;2022-09-09T11:49:40;7.35;;;3.58;;
18302;SDS011;9277;37.980;23.748;2022-09-09T11:52:18;4.38;;;3.28;;
18302;SDS011;9277;37.980;23.748;2022-09-09T11:54:47;6.22;;;3.67;;
18302;SDS011;9277;37.980;23.748;2022-09-09T11:57:24;4.80;;;4.18;;
18302;SDS011;9277;37.980;23.748;2022-09-09T11:59:51;9.73;;;3.15;;
18302;SDS011;9277;37.980;23.748;2022-09-09T12:02:19;6.90;;;3.42;;
18302;SDS011;9277;37.980;23.748;2022-09-09T12:04:49;7.13;;;2.83;;
18302;SDS011;9277;37.980;23.748;2022-09-09T12:07:23;4.70;;;2.97;;
18302;SDS011;9277;37.980;23.748;2022-09-09T12:09:54;4.38;;;3.35;;
18302;SDS011;9277;37.980;23.748;2022-09-09T12:12:31;4.40;;;2.95;;
18302;SDS011;9277;37.980;23.748;2022-09-09T12:15:15;6.05;;;3.25;;
18302;SDS011;9277;37.980;23.748;2022-09-09T12:17:45;4.10;;;2.80;;
18302;SDS011;9277;37.980;23.748;2022-09-09T12:20:13;4.47;;;2.75;;
18302;SDS011;9277;37.980;23.748;2022-09-09T12:25:30;3.85;;;3.05;;
18302;SDS011;9277;37.980;23.748;2022-09-09T12:28:02;5.53;;;3.13;;
18302;SDS011;9277;37.980;23.748;2022-09-09T12:30:32;7.70;;;2.85;;
18302;SDS011;9277;37.980;23.748;2022-09-09T12:33:01;3.53;;;2.80;;
18302;SDS011;9277;37.980;23.748;2022-09-09T12:35:29;3.20;;;2.90;;
18302;SDS011;9277;37.980;23.748;2022-09-09T12:37:57;5.43;;;2.83;;
18302;SDS011;9277;37.980;23.748;2022-09-09T12:40:26;3.90;;;3.05;;
18302;SDS011;9277;37.980;23.748;2022-09-09T12:42:53;2.78;;;2.50;;
18302;SDS011;9277;37.980;23.748;2022-09-09T12:45:22;2.65;;;2.45;;
18302;SDS011;9277;37.980;23.748;2022-09-09T12:47:50;2.42;;;2.22;;
18302;SDS011;9277;37.980;23.748;2022-09-09T12:50:19;5.03;;;2.83;;
18302;SDS011;9277;37.980;23.748;2022-09-09T12:52:47;2.40;;;2.20;;
18302;SDS011;9277;37.980;23.748;2022-09-09T12:55:16;6.40;;;2.58;;
18302;SDS011;9277;37.980;23.748;2022-09-09T12:57:44;5.32;;;2.72;;
18302;SDS011;9277;37.980;23.748;2022-09-09T13:00:13;4.65;;;2.90;;
18302;SDS011;9277;37.980;23.748;2022-09-09T13:02:49;3.13;;;2.67;;
18302;SDS011;9277;37.980;23.748;2022-09-09T13:05:17;4.18;;;2.42;;
18302;SDS011;9277;37.980;23.748;2022-09-09T13:07:44;4.07;;;2.55;;
18302;SDS011;9277;37.980;23.748;2022-09-09T13:10:12;5.30;;;2.90;;
18302;SDS011;9277;37.980;23.748;2022-09-09T13:12:40;4.38;;;2.35;;
18302;SDS011;9277;37.980;23.748;2022-09-09T13:15:10;3.90;;;2.78;;
18302;SDS011;9277;37.980;23.748;2022-09-09T13:17:39;3.05;;;2.72;;
18302;SDS011;9277;37.980;23.748;2022-09-09T13:20:14;3.97;;;2.72;;
18302;SDS011;9277;37.980;23.748;2022-09-09T13:22:42;5.90;;;2.50;;
18302;SDS011;9277;37.980;23.748;2022-09-09T13:25:17;3.25;;;2.80;;
18302;SDS011;9277;37.980;23.748;2022-09-09T13:27:51;5.15;;;2.95;;
18302;SDS011;9277;37.980;23.748;2022-09-09T13:30:20;3.97;;;3.00;;
18302;SDS011;9277;37.980;23.748;2022-09-09T13:32:48;4.13;;;2.67;;
18302;SDS011;9277;37.980;23.748;2022-09-09T13:35:27;4.72;;;2.45;;
18302;SDS011;9277;37.980;23.748;2022-09-09T13:37:54;4.28;;;2.75;;
18302;SDS011;9277;37.980;23.748;2022-09-09T13:40:22;4.45;;;2.40;;
18302;SDS011;9277;37.980;23.748;2022-09-09T13:42:51;2.60;;;2.40;;
18302;SDS011;9277;37.980;23.748;2022-09-09T13:45:19;3.00;;;2.65;;
18302;SDS011;9277;37.980;23.748;2022-09-09T13:47:46;3.72;;;2.85;;
18302;SDS011;9277;37.980;23.748;2022-09-09T13:50:24;9.93;;;2.88;;
18302;SDS011;9277;37.980;23.748;2022-09-09T13:52:53;2.80;;;2.33;;
18302;SDS011;9277;37.980;23.748;2022-09-09T13:55:24;5.68;;;2.63;;
18302;SDS011;9277;37.980;23.748;2022-09-09T13:57:52;3.47;;;2.97;;
18302;SDS011;9277;37.980;23.748;2022-09-09T14:00:19;8.23;;;3.10;;
18302;SDS011;9277;37.980;23.748;2022-09-09T14:02:46;4.70;;;3.08;;
18302;SDS011;9277;37.980;23.748;2022-09-09T14:05:13;3.45;;;2.45;;
18302;SDS011;9277;37.980;23.748;2022-09-09T14:07:41;2.95;;;2.53;;
18302;SDS011;9277;37.980;23.748;2022-09-09T14:10:12;4.97;;;2.92;;
18302;SDS011;9277;37.980;23.748;2022-09-09T14:12:39;2.50;;;2.30;;
18302;SDS011;9277;37.980;23.748;2022-09-09T14:15:06;3.95;;;2.95;;
18302;SDS011;9277;37.980;23.748;2022-09-09T14:17:33;5.53;;;3.28;;
18302;SDS011;9277;37.980;23.748;2022-09-09T14:20:01;2.95;;;2.70;;
18302;SDS011;9277;37.980;23.748;2022-09-09T14:22:28;5.50;;;3.15;;
18302;SDS011;9277;37.980;23.748;2022-09-09T14:24:57;5.30;;;2.88;;
18302;SDS011;9277;37.980;23.748;2022-09-09T14:27:25;4.95;;;2.67;;
18302;SDS011;9277;37.980;23.748;2022-09-09T14:29:52;5.38;;;3.08;;
18302;SDS011;9277;37.980;23.748;2022-09-09T14:32:19;3.83;;;2.70;;
18302;SDS011;9277;37.980;23.748;2022-09-09T14:34:46;4.10;;;3.08;;
18302;SDS011;9277;37.980;23.748;2022-09-09T14:37:14;3.88;;;2.58;;
18302;SDS011;9277;37.980;23.748;2022-09-09T14:39:41;5.43;;;2.53;;
18302;SDS011;9277;37.980;23.748;2022-09-09T14:42:09;2.90;;;2.70;;
18302;SDS011;9277;37.980;23.748;2022-09-09T14:44:37;9.25;;;3.47;;
18302;SDS011;9277;37.980;23.748;2022-09-09T14:47:04;2.75;;;2.50;;
18302;SDS011;9277;37.980;23.748;2022-09-09T14:49:31;5.22;;;2.40;;
18302;SDS011;9277;37.980;23.748;2022-09-09T14:51:58;2.97;;;2.63;;
18302;SDS011;9277;37.980;23.748;2022-09-09T14:54:24;3.83;;;2.50;;
18302;SDS011;9277;37.980;23.748;2022-09-09T14:56:51;2.95;;;2.60;;
18302;SDS011;9277;37.980;23.748;2022-09-09T14:59:18;2.80;;;2.55;;
18302;SDS011;9277;37.980;23.748;2022-09-09T15:01:47;3.00;;;2.33;;
18302;SDS011;9277;37.980;23.748;2022-09-09T15:04:13;3.28;;;2.80;;
18302;SDS011;9277;37.980;23.748;2022-09-09T15:06:42;4.70;;;3.72;;
18302;SDS011;9277;37.980;23.748;2022-09-09T15:09:13;2.72;;;2.53;;
18302;SDS011;9277;37.980;23.748;2022-09-09T15:11:40;2.80;;;2.60;;
18302;SDS011;9277;37.980;23.748;2022-09-09T15:14:07;6.03;;;2.90;;
18302;SDS011;9277;37.980;23.748;2022-09-09T15:16:34;4.38;;;2.80;;
18302;SDS011;9277;37.980;23.748;2022-09-09T15:19:02;4.95;;;2.88;;